sensor_id;sensor_type;location;lat;lon;timestamp;pressure;altitude;pressure_sealevel;temperature;humidity
40117;BME280;25829;50.228;18.936;2023-04-09T00:00:43;99191.22;;;5.43;73.49
40117;BME280;25829;50.228;18.936;2023-04-09T00:03:44;99195.50;;;5.44;73.54
40117;BME280;25829;50.228;18.936;2023-04-09T00:06:44;99199.56;;;5.46;73.68
40117;BME280;25829;50.228;18.936;2023-04-09T00:09:45;99196.00;;;5.47;73.32
40117;BME280;25829;50.228;18.936;2023-04-09T00:12:46;99189.78;;;5.48;72.83
40117;BME280;25829;50.228;18.936;2023-04-09T00:15:47;99194.72;;;5.51;73.56
40117;BME280;25829;50.228;18.936;2023-04-09T00:18:47;99190.13;;;5.53;72.81
40117;BME280;25829;50.228;18.936;2023-04-09T00:21:51;99193.38;;;5.47;73.44
40117;BME280;25829;50.228;18.936;2023-04-09T00:24:52;99194.50;;;5.45;72.95
40117;BME280;25829;50.228;18.936;2023-04-09T00:27:56;99194.69;;;5.43;72.88
40117;BME280;25829;50.228;18.936;2023-04-09T00:30:57;99198.13;;;5.44;73.35
40117;BME280;25829;50.228;18.936;2023-04-09T00:33:58;99205.66;;;5.47;73.14
40117;BME280;25829;50.228;18.936;2023-04-09T00:37:01;99201.06;;;5.49;73.19
40117;BME280;25829;50.228;18.936;2023-04-09T00:40:02;99203.53;;;5.50;72.91
40117;BME280;25829;50.228;18.936;2023-04-09T00:43:06;99209.22;;;5.46;72.88
40117;BME280;25829;50.228;18.936;2023-04-09T00:46:07;99200.06;;;5.42;73.11
40117;BME280;25829;50.228;18.936;2023-04-09T00:49:07;99207.41;;;5.38;73.25
40117;BME280;25829;50.228;18.936;2023-04-09T00:52:09;99212.94;;;5.35;73.05
40117;BME280;25829;50.228;18.936;2023-04-09T00:55:14;99211.91;;;5.28;72.53
40117;BME280;25829;50.228;18.936;2023-04-09T00:58:18;99222.19;;;5.21;72.96
40117;BME280;25829;50.228;18.936;2023-04-09T01:01:18;99209.06;;;5.13;73.53
40117;BME280;25829;50.228;18.936;2023-04-09T01:04:28;99216.41;;;5.09;73.43
40117;BME280;25829;50.228;18.936;2023-04-09T01:15:10;99221.56;;;5.01;73.37
40117;BME280;25829;50.228;18.936;2023-04-09T01:21:20;99212.69;;;4.94;73.19
40117;BME280;25829;50.228;18.936;2023-04-09T01:31:19;99227.03;;;4.90;73.17
40117;BME280;25829;50.228;18.936;2023-04-09T01:34:21;99215.75;;;4.89;73.30
40117;BME280;25829;50.228;18.936;2023-04-09T01:37:22;99211.34;;;4.90;73.22
40117;BME280;25829;50.228;18.936;2023-04-09T01:40:27;99213.16;;;4.89;73.16
40117;BME280;25829;50.228;18.936;2023-04-09T01:43:34;99219.34;;;4.88;73.54
40117;BME280;25829;50.228;18.936;2023-04-09T01:46:36;99223.09;;;4.86;73.47
40117;BME280;25829;50.228;18.936;2023-04-09T01:49:40;99217.50;;;4.81;73.33
40117;BME280;25829;50.228;18.936;2023-04-09T01:52:42;99224.16;;;4.75;73.44
40117;BME280;25829;50.228;18.936;2023-04-09T01:55:49;99218.53;;;4.70;73.60
40117;BME280;25829;50.228;18.936;2023-04-09T01:58:53;99225.56;;;4.70;73.60
40117;BME280;25829;50.228;18.936;2023-04-09T02:02:11;99224.63;;;4.71;73.48
40117;BME280;25829;50.228;18.936;2023-04-09T02:05:24;99224.09;;;4.67;73.69
40117;BME280;25829;50.228;18.936;2023-04-09T02:08:27;99223.41;;;4.65;73.73
40117;BME280;25829;50.228;18.936;2023-04-09T02:11:37;99217.38;;;4.64;73.39
40117;BME280;25829;50.228;18.936;2023-04-09T02:14:40;99226.19;;;4.63;73.31
40117;BME280;25829;50.228;18.936;2023-04-09T02:17:42;99222.06;;;4.61;73.29
40117;BME280;25829;50.228;18.936;2023-04-09T02:20:45;99226.78;;;4.57;73.70
40117;BME280;25829;50.228;18.936;2023-04-09T02:23:46;99220.88;;;4.55;73.62
40117;BME280;25829;50.228;18.936;2023-04-09T02:26:51;99210.28;;;4.57;73.46
40117;BME280;25829;50.228;18.936;2023-04-09T02:29:54;99218.56;;;4.52;73.46
40117;BME280;25829;50.228;18.936;2023-04-09T02:32:55;99218.56;;;4.52;73.56
40117;BME280;25829;50.228;18.936;2023-04-09T02:36:02;99222.97;;;4.52;73.44
40117;BME280;25829;50.228;18.936;2023-04-09T02:39:03;99223.78;;;4.52;73.56
40117;BME280;25829;50.228;18.936;2023-04-09T02:42:04;99208.78;;;4.54;73.07
40117;BME280;25829;50.228;18.936;2023-04-09T02:45:16;99218.44;;;4.54;73.13
40117;BME280;25829;50.228;18.936;2023-04-09T02:48:17;99225.13;;;4.56;73.40
40117;BME280;25829;50.228;18.936;2023-04-09T02:51:19;99217.97;;;4.58;73.38
40117;BME280;25829;50.228;18.936;2023-04-09T02:54:22;99223.19;;;4.58;73.59
40117;BME280;25829;50.228;18.936;2023-04-09T02:57:23;99220.56;;;4.58;74.13
40117;BME280;25829;50.228;18.936;2023-04-09T03:00:24;99225.00;;;4.58;73.89
40117;BME280;25829;50.228;18.936;2023-04-09T03:03:25;99221.84;;;4.54;73.77
40117;BME280;25829;50.228;18.936;2023-04-09T03:06:29;99223.50;;;4.55;73.77
40117;BME280;25829;50.228;18.936;2023-04-09T03:09:30;99216.34;;;4.57;73.81
40117;BME280;25829;50.228;18.936;2023-04-09T03:12:33;99214.25;;;4.61;73.81
40117;BME280;25829;50.228;18.936;2023-04-09T03:15:35;99224.53;;;4.62;73.99
40117;BME280;25829;50.228;18.936;2023-04-09T03:18:36;99219.69;;;4.50;73.79
40117;BME280;25829;50.228;18.936;2023-04-09T03:21:36;99217.16;;;4.40;74.20
40117;BME280;25829;50.228;18.936;2023-04-09T03:24:38;99214.97;;;4.35;74.11
40117;BME280;25829;50.228;18.936;2023-04-09T03:27:41;99222.97;;;4.34;74.40
40117;BME280;25829;50.228;18.936;2023-04-09T03:30:43;99227.38;;;4.33;74.49
40117;BME280;25829;50.228;18.936;2023-04-09T03:33:44;99222.97;;;4.34;74.33
40117;BME280;25829;50.228;18.936;2023-04-09T03:36:46;99221.09;;;4.26;74.70
40117;BME280;25829;50.228;18.936;2023-04-09T03:40:02;99222.50;;;4.21;74.95
40117;BME280;25829;50.228;18.936;2023-04-09T03:43:04;99217.81;;;4.24;75.06
40117;BME280;25829;50.228;18.936;2023-04-09T03:46:12;99218.34;;;4.28;74.72
40117;BME280;25829;50.228;18.936;2023-04-09T03:49:17;99220.19;;;4.35;74.77
40117;BME280;25829;50.228;18.936;2023-04-09T03:52:19;99216.34;;;4.39;74.73
40117;BME280;25829;50.228;18.936;2023-04-09T03:55:26;99217.81;;;4.42;74.95
40117;BME280;25829;50.228;18.936;2023-04-09T03:58:27;99222.59;;;4.47;74.48
40117;BME280;25829;50.228;18.936;2023-04-09T04:01:28;99219.84;;;4.48;74.61
40117;BME280;25829;50.228;18.936;2023-04-09T04:04:32;99232.44;;;4.53;74.58
40117;BME280;25829;50.228;18.936;2023-04-09T04:07:33;99215.13;;;4.52;74.70
40117;BME280;25829;50.228;18.936;2023-04-09T04:10:54;99225.44;;;4.53;74.39
40117;BME280;25829;50.228;18.936;2023-04-09T04:13:55;99232.31;;;4.54;74.71
40117;BME280;25829;50.228;18.936;2023-04-09T04:16:57;99227.91;;;4.55;74.49
40117;BME280;25829;50.228;18.936;2023-04-09T04:20:02;99232.16;;;4.56;74.61
40117;BME280;25829;50.228;18.936;2023-04-09T04:23:08;99233.81;;;4.57;74.84
40117;BME280;25829;50.228;18.936;2023-04-09T04:26:12;99225.81;;;4.58;74.37
40117;BME280;25829;50.228;18.936;2023-04-09T04:29:14;99235.38;;;4.50;74.36
40117;BME280;25829;50.228;18.936;2023-04-09T04:32:25;99233.78;;;4.39;74.85
40117;BME280;25829;50.228;18.936;2023-04-09T04:35:33;99237.00;;;4.33;74.97
40117;BME280;25829;50.228;18.936;2023-04-09T04:38:38;99237.00;;;4.33;75.11
40117;BME280;25829;50.228;18.936;2023-04-09T04:41:45;99239.84;;;4.39;75.12
40117;BME280;25829;50.228;18.936;2023-04-09T04:44:51;99240.06;;;4.46;75.37
40117;BME280;25829;50.228;18.936;2023-04-09T04:48:21;99227.38;;;4.51;75.72
40117;BME280;25829;50.228;18.936;2023-04-09T04:51:25;99236.09;;;4.60;75.05
40117;BME280;25829;50.228;18.936;2023-04-09T04:54:35;99234.97;;;4.62;75.19
40117;BME280;25829;50.228;18.936;2023-04-09T04:57:36;99239.09;;;4.65;75.13
40117;BME280;25829;50.228;18.936;2023-04-09T05:00:37;99240.38;;;4.61;75.45
40117;BME280;25829;50.228;18.936;2023-04-09T05:03:38;99242.31;;;4.59;75.30
40117;BME280;25829;50.228;18.936;2023-04-09T05:07:02;99237.88;;;4.59;75.69
40117;BME280;25829;50.228;18.936;2023-04-09T05:10:03;99244.16;;;4.67;75.71
40117;BME280;25829;50.228;18.936;2023-04-09T05:13:10;99232.44;;;4.71;75.29
40117;BME280;25829;50.228;18.936;2023-04-09T05:16:18;99242.28;;;4.77;75.20
40117;BME280;25829;50.228;18.936;2023-04-09T05:19:25;99237.56;;;4.80;75.60
40117;BME280;25829;50.228;18.936;2023-04-09T05:22:32;99246.78;;;4.84;75.18
40117;BME280;25829;50.228;18.936;2023-04-09T05:25:32;99255.75;;;4.82;75.02
40117;BME280;25829;50.228;18.936;2023-04-09T05:28:35;99252.59;;;4.78;75.42
40117;BME280;25829;50.228;18.936;2023-04-09T05:31:43;99260.81;;;4.83;75.54
40117;BME280;25829;50.228;18.936;2023-04-09T05:34:57;99250.22;;;4.85;75.03
40117;BME280;25829;50.228;18.936;2023-04-09T05:37:59;99255.66;;;4.92;74.92
40117;BME280;25829;50.228;18.936;2023-04-09T05:41:00;99251.75;;;4.96;75.77
40117;BME280;25829;50.228;18.936;2023-04-09T05:44:01;99257.50;;;4.99;75.02
40117;BME280;25829;50.228;18.936;2023-04-09T05:47:03;99254.72;;;5.01;75.77
40117;BME280;25829;50.228;18.936;2023-04-09T05:50:12;99260.34;;;5.06;75.77
40117;BME280;25829;50.228;18.936;2023-04-09T05:53:14;99268.53;;;5.11;75.75
40117;BME280;25829;50.228;18.936;2023-04-09T05:56:15;99264.97;;;5.12;75.18
40117;BME280;25829;50.228;18.936;2023-04-09T05:59:29;99274.28;;;5.15;75.59
40117;BME280;25829;50.228;18.936;2023-04-09T06:02:30;99268.63;;;5.19;75.30
40117;BME280;25829;50.228;18.936;2023-04-09T06:05:31;99275.81;;;5.25;75.38
40117;BME280;25829;50.228;18.936;2023-04-09T06:08:32;99280.75;;;5.28;75.33
40117;BME280;25829;50.228;18.936;2023-04-09T06:11:32;99269.69;;;5.34;75.28
40117;BME280;25829;50.228;18.936;2023-04-09T06:14:34;99278.88;;;5.39;75.28
40117;BME280;25829;50.228;18.936;2023-04-09T06:17:35;99278.03;;;5.38;75.06
40117;BME280;25829;50.228;18.936;2023-04-09T06:20:35;99286.72;;;5.39;75.58
40117;BME280;25829;50.228;18.936;2023-04-09T06:23:37;99280.19;;;5.43;75.40
40117;BME280;25829;50.228;18.936;2023-04-09T06:26:37;99279.44;;;5.50;75.64
40117;BME280;25829;50.228;18.936;2023-04-09T06:29:38;99287.16;;;5.60;75.43
40117;BME280;25829;50.228;18.936;2023-04-09T06:32:39;99286.25;;;5.69;75.70
40117;BME280;25829;50.228;18.936;2023-04-09T06:35:40;99288.88;;;5.77;75.37
40117;BME280;25829;50.228;18.936;2023-04-09T06:38:41;99291.56;;;5.86;75.36
40117;BME280;25829;50.228;18.936;2023-04-09T06:41:42;99285.56;;;5.93;74.93
40117;BME280;25829;50.228;18.936;2023-04-09T06:44:55;99290.84;;;6.01;75.01
40117;BME280;25829;50.228;18.936;2023-04-09T06:47:56;99287.44;;;6.09;75.14
40117;BME280;25829;50.228;18.936;2023-04-09T06:50:57;99300.06;;;6.14;74.83
40117;BME280;25829;50.228;18.936;2023-04-09T06:54:03;99308.13;;;6.20;74.60
40117;BME280;25829;50.228;18.936;2023-04-09T06:57:05;99294.38;;;6.26;74.77
40117;BME280;25829;50.228;18.936;2023-04-09T07:00:10;99297.34;;;6.31;74.72
40117;BME280;25829;50.228;18.936;2023-04-09T07:03:11;99300.28;;;6.37;74.69
40117;BME280;25829;50.228;18.936;2023-04-09T07:06:12;99299.00;;;6.41;74.60
40117;BME280;25829;50.228;18.936;2023-04-09T07:09:12;99302.63;;;6.48;74.55
40117;BME280;25829;50.228;18.936;2023-04-09T07:12:13;99294.78;;;6.56;74.27
40117;BME280;25829;50.228;18.936;2023-04-09T07:15:14;99298.06;;;6.66;74.04
40117;BME280;25829;50.228;18.936;2023-04-09T07:18:15;99303.47;;;6.73;74.01
40117;BME280;25829;50.228;18.936;2023-04-09T07:21:16;99304.47;;;6.80;73.73
40117;BME280;25829;50.228;18.936;2023-04-09T07:24:16;99300.22;;;6.87;74.10
40117;BME280;25829;50.228;18.936;2023-04-09T07:27:18;99308.59;;;6.91;73.27
40117;BME280;25829;50.228;18.936;2023-04-09T07:30:20;99316.44;;;6.91;73.39
40117;BME280;25829;50.228;18.936;2023-04-09T07:33:20;99312.69;;;6.93;73.33
40117;BME280;25829;50.228;18.936;2023-04-09T07:36:21;99309.56;;;6.98;73.25
40117;BME280;25829;50.228;18.936;2023-04-09T07:39:22;99304.16;;;7.08;73.55
40117;BME280;25829;50.228;18.936;2023-04-09T07:42:23;99301.53;;;7.16;73.52
40117;BME280;25829;50.228;18.936;2023-04-09T07:45:33;99308.25;;;7.18;72.93
40117;BME280;25829;50.228;18.936;2023-04-09T07:48:33;99315.00;;;7.21;73.37
40117;BME280;25829;50.228;18.936;2023-04-09T07:52:11;99308.41;;;7.25;73.13
40117;BME280;25829;50.228;18.936;2023-04-09T07:55:12;99310.06;;;7.26;72.79
40117;BME280;25829;50.228;18.936;2023-04-09T07:58:13;99318.41;;;7.30;72.90
40117;BME280;25829;50.228;18.936;2023-04-09T08:01:14;99309.25;;;7.34;73.03
40117;BME280;25829;50.228;18.936;2023-04-09T08:04:15;99306.44;;;7.35;72.83
40117;BME280;25829;50.228;18.936;2023-04-09T08:07:21;99310.56;;;7.38;72.63
40117;BME280;25829;50.228;18.936;2023-04-09T08:10:22;99309.75;;;7.37;72.32
40117;BME280;25829;50.228;18.936;2023-04-09T08:13:23;99307.25;;;7.44;72.50
40117;BME280;25829;50.228;18.936;2023-04-09T08:16:27;99311.03;;;7.41;72.78
40117;BME280;25829;50.228;18.936;2023-04-09T08:19:29;99317.75;;;7.44;72.42
40117;BME280;25829;50.228;18.936;2023-04-09T08:22:30;99326.94;;;7.48;72.53
40117;BME280;25829;50.228;18.936;2023-04-09T08:25:32;99319.56;;;7.52;72.52
40117;BME280;25829;50.228;18.936;2023-04-09T08:28:34;99322.81;;;7.54;72.50
40117;BME280;25829;50.228;18.936;2023-04-09T08:31:41;99329.38;;;7.58;72.28
40117;BME280;25829;50.228;18.936;2023-04-09T08:34:42;99326.59;;;7.59;72.50
40117;BME280;25829;50.228;18.936;2023-04-09T08:37:46;99331.34;;;7.64;72.12
40117;BME280;25829;50.228;18.936;2023-04-09T08:40:47;99329.72;;;7.63;72.42
40117;BME280;25829;50.228;18.936;2023-04-09T08:43:48;99322.81;;;7.62;72.59
40117;BME280;25829;50.228;18.936;2023-04-09T08:46:49;99323.94;;;7.67;72.62
40117;BME280;25829;50.228;18.936;2023-04-09T08:49:50;99334.13;;;7.79;72.48
40117;BME280;25829;50.228;18.936;2023-04-09T08:52:52;99327.38;;;7.84;72.24
40117;BME280;25829;50.228;18.936;2023-04-09T08:55:53;99328.19;;;7.85;71.90
40117;BME280;25829;50.228;18.936;2023-04-09T08:58:55;99323.75;;;7.93;72.33
40117;BME280;25829;50.228;18.936;2023-04-09T09:02:09;99323.25;;;7.98;71.91
40117;BME280;25829;50.228;18.936;2023-04-09T09:05:10;99324.38;;;8.04;71.76
40117;BME280;25829;50.228;18.936;2023-04-09T09:08:22;99329.44;;;8.05;71.72
40117;BME280;25829;50.228;18.936;2023-04-09T09:11:26;99326.31;;;8.10;71.78
40117;BME280;25829;50.228;18.936;2023-04-09T09:14:31;99329.06;;;8.16;71.80
40117;BME280;25829;50.228;18.936;2023-04-09T09:17:53;99336.13;;;8.24;71.32
40117;BME280;25829;50.228;18.936;2023-04-09T09:21:17;99322.00;;;8.25;71.42
40117;BME280;25829;50.228;18.936;2023-04-09T09:24:29;99330.50;;;8.27;71.02
40117;BME280;25829;50.228;18.936;2023-04-09T09:27:34;99325.91;;;8.29;70.95
40117;BME280;25829;50.228;18.936;2023-04-09T09:30:45;99324.78;;;8.24;70.84
40117;BME280;25829;50.228;18.936;2023-04-09T09:33:47;99331.84;;;8.23;70.94
40117;BME280;25829;50.228;18.936;2023-04-09T09:36:48;99336.13;;;8.24;71.02
40117;BME280;25829;50.228;18.936;2023-04-09T09:39:52;99340.06;;;8.28;71.33
40117;BME280;25829;50.228;18.936;2023-04-09T09:42:59;99338.38;;;8.35;71.45
40117;BME280;25829;50.228;18.936;2023-04-09T09:46:00;99333.59;;;8.39;70.99
40117;BME280;25829;50.228;18.936;2023-04-09T09:49:08;99328.63;;;8.44;71.06
40117;BME280;25829;50.228;18.936;2023-04-09T09:52:10;99327.78;;;8.52;71.37
40117;BME280;25829;50.228;18.936;2023-04-09T09:55:16;99332.66;;;8.63;71.33
40117;BME280;25829;50.228;18.936;2023-04-09T09:58:27;99329.94;;;8.71;71.09
40117;BME280;25829;50.228;18.936;2023-04-09T10:01:31;99325.63;;;8.78;70.99
40117;BME280;25829;50.228;18.936;2023-04-09T10:04:38;99327.22;;;8.87;70.55
40117;BME280;25829;50.228;18.936;2023-04-09T10:07:41;99321.97;;;8.87;70.45
40117;BME280;25829;50.228;18.936;2023-04-09T10:10:43;99320.59;;;8.91;70.21
40117;BME280;25829;50.228;18.936;2023-04-09T10:13:52;99321.06;;;8.95;70.03
40117;BME280;25829;50.228;18.936;2023-04-09T10:16:58;99321.91;;;8.96;70.05
40117;BME280;25829;50.228;18.936;2023-04-09T10:20:16;99315.59;;;9.05;69.67
40117;BME280;25829;50.228;18.936;2023-04-09T10:23:30;99323.13;;;9.08;69.61
40117;BME280;25829;50.228;18.936;2023-04-09T10:27:10;99318.31;;;9.11;69.71
40117;BME280;25829;50.228;18.936;2023-04-09T10:30:33;99311.06;;;9.13;69.41
40117;BME280;25829;50.228;18.936;2023-04-09T10:33:36;99305.63;;;9.15;69.18
40117;BME280;25829;50.228;18.936;2023-04-09T10:36:37;99308.53;;;9.20;69.53
40117;BME280;25829;50.228;18.936;2023-04-09T10:39:40;99307.13;;;9.32;69.27
40117;BME280;25829;50.228;18.936;2023-04-09T10:46:33;99306.25;;;9.55;68.81
40117;BME280;25829;50.228;18.936;2023-04-09T10:49:40;99300.66;;;9.58;68.72
40117;BME280;25829;50.228;18.936;2023-04-09T10:52:43;99311.47;;;9.63;67.88
40117;BME280;25829;50.228;18.936;2023-04-09T10:55:56;99296.47;;;9.63;67.61
40117;BME280;25829;50.228;18.936;2023-04-09T11:06:09;99300.75;;;9.79;67.39
40117;BME280;25829;50.228;18.936;2023-04-09T11:09:10;99301.84;;;9.85;67.05
40117;BME280;25829;50.228;18.936;2023-04-09T11:12:11;99300.75;;;9.94;66.96
40117;BME280;25829;50.228;18.936;2023-04-09T11:15:47;99300.09;;;10.07;65.69
40117;BME280;25829;50.228;18.936;2023-04-09T11:18:48;99294.44;;;10.10;66.24
40117;BME280;25829;50.228;18.936;2023-04-09T11:21:51;99302.00;;;10.13;65.73
40117;BME280;25829;50.228;18.936;2023-04-09T11:25:07;99298.44;;;10.21;65.63
40117;BME280;25829;50.228;18.936;2023-04-09T11:28:10;99295.00;;;10.20;64.86
40117;BME280;25829;50.228;18.936;2023-04-09T11:31:11;99289.34;;;10.23;64.95
40117;BME280;25829;50.228;18.936;2023-04-09T11:34:15;99290.31;;;10.37;65.14
40117;BME280;25829;50.228;18.936;2023-04-09T11:37:23;99286.56;;;10.46;65.32
40117;BME280;25829;50.228;18.936;2023-04-09T11:40:30;99290.84;;;10.47;63.36
40117;BME280;25829;50.228;18.936;2023-04-09T11:43:31;99293.16;;;10.35;62.24
40117;BME280;25829;50.228;18.936;2023-04-09T11:46:32;99290.25;;;10.30;62.58
40117;BME280;25829;50.228;18.936;2023-04-09T11:49:36;99292.13;;;10.37;62.91
40117;BME280;25829;50.228;18.936;2023-04-09T11:52:38;99284.69;;;10.40;63.40
40117;BME280;25829;50.228;18.936;2023-04-09T11:55:50;99282.19;;;10.53;63.88
40117;BME280;25829;50.228;18.936;2023-04-09T11:58:57;99275.59;;;10.64;63.45
40117;BME280;25829;50.228;18.936;2023-04-09T12:01:59;99283.38;;;10.72;63.24
40117;BME280;25829;50.228;18.936;2023-04-09T12:05:02;99283.31;;;10.80;63.46
40117;BME280;25829;50.228;18.936;2023-04-09T12:08:06;99288.81;;;10.86;62.55
40117;BME280;25829;50.228;18.936;2023-04-09T12:11:11;99278.47;;;10.84;62.51
40117;BME280;25829;50.228;18.936;2023-04-09T12:14:34;99277.31;;;10.93;62.13
40117;BME280;25829;50.228;18.936;2023-04-09T12:17:35;99283.53;;;11.07;62.28
40117;BME280;25829;50.228;18.936;2023-04-09T12:23:44;99281.13;;;11.12;61.60
40117;BME280;25829;50.228;18.936;2023-04-09T12:26:53;99277.34;;;11.21;61.78
40117;BME280;25829;50.228;18.936;2023-04-09T12:30:01;99269.88;;;11.32;60.50
40117;BME280;25829;50.228;18.936;2023-04-09T12:33:03;99283.09;;;11.32;60.19
40117;BME280;25829;50.228;18.936;2023-04-09T12:36:04;99274.13;;;11.26;59.64
40117;BME280;25829;50.228;18.936;2023-04-09T12:39:10;99285.03;;;11.16;58.47
40117;BME280;25829;50.228;18.936;2023-04-09T12:42:24;99271.13;;;11.07;59.13
40117;BME280;25829;50.228;18.936;2023-04-09T12:45:25;99281.09;;;11.05;58.97
40117;BME280;25829;50.228;18.936;2023-04-09T12:48:27;99277.75;;;10.97;58.34
40117;BME280;25829;50.228;18.936;2023-04-09T12:51:28;99268.56;;;10.93;58.96
40117;BME280;25829;50.228;18.936;2023-04-09T12:54:35;99266.81;;;11.00;59.23
40117;BME280;25829;50.228;18.936;2023-04-09T12:57:44;99271.13;;;11.07;59.34
40117;BME280;25829;50.228;18.936;2023-04-09T13:00:46;99269.13;;;11.10;59.12
40117;BME280;25829;50.228;18.936;2023-04-09T13:07:46;99259.00;;;11.13;58.64
40117;BME280;25829;50.228;18.936;2023-04-09T13:10:47;99262.88;;;11.17;58.18
40117;BME280;25829;50.228;18.936;2023-04-09T13:13:59;99257.66;;;11.24;58.67
40117;BME280;25829;50.228;18.936;2023-04-09T13:17:16;99250.97;;;11.28;57.77
40117;BME280;25829;50.228;18.936;2023-04-09T13:23:45;99252.94;;;11.19;57.02
40117;BME280;25829;50.228;18.936;2023-04-09T13:27:15;99257.81;;;11.16;55.73
40117;BME280;25829;50.228;18.936;2023-04-09T13:30:25;99252.75;;;11.21;56.64
40117;BME280;25829;50.228;18.936;2023-04-09T13:33:47;99250.69;;;11.16;56.69
40117;BME280;25829;50.228;18.936;2023-04-09T13:36:58;99248.63;;;11.12;56.08
40117;BME280;25829;50.228;18.936;2023-04-09T13:40:02;99251.84;;;11.07;55.70
40117;BME280;25829;50.228;18.936;2023-04-09T13:43:03;99257.69;;;11.02;55.99
40117;BME280;25829;50.228;18.936;2023-04-09T13:46:07;99253.97;;;10.97;55.11
40117;BME280;25829;50.228;18.936;2023-04-09T13:49:07;99258.97;;;10.85;54.52
40117;BME280;25829;50.228;18.936;2023-04-09T13:52:09;99260.91;;;10.76;55.67
40117;BME280;25829;50.228;18.936;2023-04-09T13:55:10;99260.34;;;10.59;53.36
40117;BME280;25829;50.228;18.936;2023-04-09T13:58:10;99264.66;;;10.46;52.19
40117;BME280;25829;50.228;18.936;2023-04-09T14:01:14;99258.97;;;10.27;54.05
40117;BME280;25829;50.228;18.936;2023-04-09T14:04:40;99267.25;;;10.24;54.49
40117;BME280;25829;50.228;18.936;2023-04-09T14:07:44;99263.78;;;10.24;55.30
40117;BME280;25829;50.228;18.936;2023-04-09T14:10:45;99266.78;;;10.21;54.87
40117;BME280;25829;50.228;18.936;2023-04-09T14:13:46;99267.72;;;10.13;54.49
40117;BME280;25829;50.228;18.936;2023-04-09T14:16:47;99261.47;;;9.99;53.19
40117;BME280;25829;50.228;18.936;2023-04-09T14:19:49;99269.66;;;9.90;54.03
40117;BME280;25829;50.228;18.936;2023-04-09T14:22:51;99258.22;;;9.82;54.34
40117;BME280;25829;50.228;18.936;2023-04-09T14:25:51;99255.78;;;9.81;54.31
40117;BME280;25829;50.228;18.936;2023-04-09T14:28:52;99245.78;;;9.76;54.90
40117;BME280;25829;50.228;18.936;2023-04-09T14:31:54;99250.88;;;9.78;55.46
40117;BME280;25829;50.228;18.936;2023-04-09T14:34:58;99241.22;;;9.85;55.79
40117;BME280;25829;50.228;18.936;2023-04-09T14:37:58;99234.13;;;9.85;55.60
40117;BME280;25829;50.228;18.936;2023-04-09T14:41:01;99240.03;;;9.87;55.31
40117;BME280;25829;50.228;18.936;2023-04-09T14:44:01;99241.06;;;9.86;54.72
40117;BME280;25829;50.228;18.936;2023-04-09T14:47:02;99239.59;;;9.69;52.84
40117;BME280;25829;50.228;18.936;2023-04-09T14:50:03;99244.34;;;9.59;54.94
40117;BME280;25829;50.228;18.936;2023-04-09T14:53:04;99242.69;;;9.58;55.32
40117;BME280;25829;50.228;18.936;2023-04-09T14:56:08;99233.88;;;9.51;55.98
40117;BME280;25829;50.228;18.936;2023-04-09T14:59:13;99234.53;;;9.53;56.02
40117;BME280;25829;50.228;18.936;2023-04-09T15:02:16;99236.16;;;9.54;56.93
40117;BME280;25829;50.228;18.936;2023-04-09T15:05:17;99237.16;;;9.53;57.31
40117;BME280;25829;50.228;18.936;2023-04-09T15:08:18;99244.69;;;9.56;57.60
40117;BME280;25829;50.228;18.936;2023-04-09T15:11:21;99234.97;;;9.56;57.98
40117;BME280;25829;50.228;18.936;2023-04-09T15:14:30;99234.31;;;9.54;58.45
40117;BME280;25829;50.228;18.936;2023-04-09T15:17:31;99241.53;;;9.46;58.09
40117;BME280;25829;50.228;18.936;2023-04-09T15:20:42;99233.88;;;9.36;58.04
40117;BME280;25829;50.228;18.936;2023-04-09T15:23:43;99228.13;;;9.32;58.38
40117;BME280;25829;50.228;18.936;2023-04-09T15:26:44;99227.97;;;9.34;58.74
40117;BME280;25829;50.228;18.936;2023-04-09T15:29:44;99233.31;;;9.40;58.92
40117;BME280;25829;50.228;18.936;2023-04-09T15:32:47;99235.16;;;9.40;58.49
40117;BME280;25829;50.228;18.936;2023-04-09T15:35:48;99229.75;;;9.33;58.29
40117;BME280;25829;50.228;18.936;2023-04-09T15:38:52;99231.13;;;9.29;58.13
40117;BME280;25829;50.228;18.936;2023-04-09T15:41:54;99233.00;;;9.21;58.15
40117;BME280;25829;50.228;18.936;2023-04-09T15:44:58;99238.09;;;9.22;58.83
40117;BME280;25829;50.228;18.936;2023-04-09T15:48:01;99234.56;;;9.30;59.40
40117;BME280;25829;50.228;18.936;2023-04-09T15:51:08;99242.59;;;9.36;59.15
40117;BME280;25829;50.228;18.936;2023-04-09T15:54:17;99239.25;;;9.43;59.16
40117;BME280;25829;50.228;18.936;2023-04-09T15:57:19;99240.50;;;9.47;59.23
40117;BME280;25829;50.228;18.936;2023-04-09T16:00:27;99246.69;;;9.54;59.23
40117;BME280;25829;50.228;18.936;2023-04-09T16:03:28;99246.22;;;9.50;58.38
40117;BME280;25829;50.228;18.936;2023-04-09T16:09:45;99252.00;;;9.31;58.99
40117;BME280;25829;50.228;18.936;2023-04-09T16:12:46;99245.63;;;9.25;59.24
40117;BME280;25829;50.228;18.936;2023-04-09T16:15:49;99250.81;;;9.19;59.61
40117;BME280;25829;50.228;18.936;2023-04-09T16:18:50;99245.97;;;9.07;59.58
40117;BME280;25829;50.228;18.936;2023-04-09T16:21:56;99250.31;;;9.00;59.95
40117;BME280;25829;50.228;18.936;2023-04-09T16:24:57;99253.19;;;8.90;60.23
40117;BME280;25829;50.228;18.936;2023-04-09T16:27:58;99259.81;;;8.86;60.31
40117;BME280;25829;50.228;18.936;2023-04-09T16:30:59;99258.16;;;8.85;60.49
40117;BME280;25829;50.228;18.936;2023-04-09T16:34:01;99258.16;;;8.85;60.53
40117;BME280;25829;50.228;18.936;2023-04-09T16:37:02;99251.06;;;8.86;60.92
40117;BME280;25829;50.228;18.936;2023-04-09T16:40:06;99246.69;;;8.78;60.87
40117;BME280;25829;50.228;18.936;2023-04-09T16:43:08;99264.50;;;8.76;61.33
40117;BME280;25829;50.228;18.936;2023-04-09T16:46:10;99267.13;;;8.76;61.33
40117;BME280;25829;50.228;18.936;2023-04-09T16:49:21;99264.31;;;8.78;61.50
40117;BME280;25829;50.228;18.936;2023-04-09T16:52:52;99274.81;;;8.78;61.85
40117;BME280;25829;50.228;18.936;2023-04-09T16:55:53;99269.41;;;8.79;61.75